sensor_id;sensor_type;location;lat;lon;timestamp;P1;durP1;ratioP1;P2;durP2;ratioP2
50789;SDS011;37287;47.554;7.844;2022-12-18T00:03:48;41.65;;;26.08;;
50789;SDS011;37287;47.554;7.844;2022-12-18T00:06:18;42.00;;;25.85;;
50789;SDS011;37287;47.554;7.844;2022-12-18T00:08:45;41.30;;;24.77;;
50789;SDS011;37287;47.554;7.844;2022-12-18T00:11:13;44.78;;;27.02;;
50789;SDS011;37287;47.554;7.844;2022-12-18T00:13:47;45.22;;;26.85;;
50789;SDS011;37287;47.554;7.844;2022-12-18T00:16:14;45.17;;;27.50;;
50789;SDS011;37287;47.554;7.844;2022-12-18T00:18:43;47.67;;;27.33;;
50789;SDS011;37287;47.554;7.844;2022-12-18T00:21:16;43.85;;;26.05;;
50789;SDS011;37287;47.554;7.844;2022-12-18T00:23:44;42.60;;;27.05;;
50789;SDS011;37287;47.554;7.844;2022-12-18T00:26:13;46.05;;;27.52;;
50789;SDS011;37287;47.554;7.844;2022-12-18T00:28:43;45.40;;;27.77;;
50789;SDS011;37287;47.554;7.844;2022-12-18T00:31:10;42.30;;;26.13;;
50789;SDS011;37287;47.554;7.844;2022-12-18T00:33:40;46.08;;;28.30;;
50789;SDS011;37287;47.554;7.844;2022-12-18T00:36:10;46.88;;;26.50;;
50789;SDS011;37287;47.554;7.844;2022-12-18T00:38:41;44.03;;;27.17;;
50789;SDS011;37287;47.554;7.844;2022-12-18T00:41:08;45.63;;;28.08;;
50789;SDS011;37287;47.554;7.844;2022-12-18T00:43:38;46.25;;;27.08;;
50789;SDS011;37287;47.554;7.844;2022-12-18T00:46:06;47.90;;;27.05;;
50789;SDS011;37287;47.554;7.844;2022-12-18T00:48:33;45.67;;;27.70;;
50789;SDS011;37287;47.554;7.844;2022-12-18T00:51:06;43.60;;;27.35;;
50789;SDS011;37287;47.554;7.844;2022-12-18T00:53:34;44.65;;;27.17;;
50789;SDS011;37287;47.554;7.844;2022-12-18T00:56:01;48.67;;;29.02;;
50789;SDS011;37287;47.554;7.844;2022-12-18T00:58:30;45.53;;;28.13;;
50789;SDS011;37287;47.554;7.844;2022-12-18T01:00:57;48.47;;;27.48;;
50789;SDS011;37287;47.554;7.844;2022-12-18T01:03:23;43.30;;;27.52;;
50789;SDS011;37287;47.554;7.844;2022-12-18T01:05:54;47.63;;;29.08;;
50789;SDS011;37287;47.554;7.844;2022-12-18T01:08:20;48.08;;;28.60;;
50789;SDS011;37287;47.554;7.844;2022-12-18T01:10:47;53.10;;;29.20;;
50789;SDS011;37287;47.554;7.844;2022-12-18T01:13:14;48.88;;;29.60;;
50789;SDS011;37287;47.554;7.844;2022-12-18T01:15:49;48.88;;;30.15;;
50789;SDS011;37287;47.554;7.844;2022-12-18T01:18:16;47.20;;;29.33;;
50789;SDS011;37287;47.554;7.844;2022-12-18T01:20:43;57.45;;;31.92;;
50789;SDS011;37287;47.554;7.844;2022-12-18T01:23:09;52.47;;;31.08;;
50789;SDS011;37287;47.554;7.844;2022-12-18T01:25:37;47.90;;;29.58;;
50789;SDS011;37287;47.554;7.844;2022-12-18T01:28:04;55.53;;;30.90;;
50789;SDS011;37287;47.554;7.844;2022-12-18T01:30:31;55.95;;;31.25;;
50789;SDS011;37287;47.554;7.844;2022-12-18T01:32:57;55.15;;;30.83;;
50789;SDS011;37287;47.554;7.844;2022-12-18T01:35:24;48.60;;;29.45;;
50789;SDS011;37287;47.554;7.844;2022-12-18T01:37:53;55.90;;;30.55;;
50789;SDS011;37287;47.554;7.844;2022-12-18T01:40:25;51.95;;;30.17;;
50789;SDS011;37287;47.554;7.844;2022-12-18T01:42:52;56.97;;;32.22;;
50789;SDS011;37287;47.554;7.844;2022-12-18T01:45:29;57.83;;;31.45;;
50789;SDS011;37287;47.554;7.844;2022-12-18T01:48:00;57.97;;;31.55;;
50789;SDS011;37287;47.554;7.844;2022-12-18T01:50:34;55.45;;;33.38;;
50789;SDS011;37287;47.554;7.844;2022-12-18T01:55:47;59.55;;;31.75;;
50789;SDS011;37287;47.554;7.844;2022-12-18T01:58:14;53.95;;;32.42;;
50789;SDS011;37287;47.554;7.844;2022-12-18T02:00:43;53.55;;;32.15;;
50789;SDS011;37287;47.554;7.844;2022-12-18T02:03:14;58.13;;;33.25;;
50789;SDS011;37287;47.554;7.844;2022-12-18T02:05:45;55.58;;;31.23;;
50789;SDS011;37287;47.554;7.844;2022-12-18T02:08:22;57.78;;;32.22;;
50789;SDS011;37287;47.554;7.844;2022-12-18T02:11:07;61.55;;;34.08;;
50789;SDS011;37287;47.554;7.844;2022-12-18T02:18:59;61.95;;;33.85;;
50789;SDS011;37287;47.554;7.844;2022-12-18T02:21:38;66.22;;;35.28;;
50789;SDS011;37287;47.554;7.844;2022-12-18T02:27:02;64.85;;;36.35;;
50789;SDS011;37287;47.554;7.844;2022-12-18T02:29:45;66.95;;;35.72;;
50789;SDS011;37287;47.554;7.844;2022-12-18T02:32:42;64.43;;;34.42;;
50789;SDS011;37287;47.554;7.844;2022-12-18T02:35:15;72.30;;;36.92;;
50789;SDS011;37287;47.554;7.844;2022-12-18T02:37:47;69.18;;;35.50;;
50789;SDS011;37287;47.554;7.844;2022-12-18T02:40:14;65.85;;;34.92;;
50789;SDS011;37287;47.554;7.844;2022-12-18T02:42:43;55.55;;;32.42;;
50789;SDS011;37287;47.554;7.844;2022-12-18T02:45:09;68.47;;;36.65;;
50789;SDS011;37287;47.554;7.844;2022-12-18T02:47:37;59.97;;;33.72;;
50789;SDS011;37287;47.554;7.844;2022-12-18T02:55:23;65.50;;;37.60;;
50789;SDS011;37287;47.554;7.844;2022-12-18T02:58:26;62.85;;;35.28;;
50789;SDS011;37287;47.554;7.844;2022-12-18T03:01:14;72.97;;;37.30;;
50789;SDS011;37287;47.554;7.844;2022-12-18T03:06:27;72.90;;;37.13;;
50789;SDS011;37287;47.554;7.844;2022-12-18T03:08:57;67.13;;;37.35;;
50789;SDS011;37287;47.554;7.844;2022-12-18T03:11:28;68.72;;;37.38;;
50789;SDS011;37287;47.554;7.844;2022-12-18T03:14:17;74.03;;;36.72;;
50789;SDS011;37287;47.554;7.844;2022-12-18T03:16:48;75.32;;;38.78;;
50789;SDS011;37287;47.554;7.844;2022-12-18T03:19:20;77.13;;;39.80;;
50789;SDS011;37287;47.554;7.844;2022-12-18T03:21:51;67.63;;;36.60;;
50789;SDS011;37287;47.554;7.844;2022-12-18T03:24:24;74.25;;;38.60;;
50789;SDS011;37287;47.554;7.844;2022-12-18T03:26:53;72.18;;;37.28;;
50789;SDS011;37287;47.554;7.844;2022-12-18T03:29:29;73.40;;;36.67;;
50789;SDS011;37287;47.554;7.844;2022-12-18T03:35:03;75.82;;;37.42;;
50789;SDS011;37287;47.554;7.844;2022-12-18T03:37:31;67.43;;;38.70;;
50789;SDS011;37287;47.554;7.844;2022-12-18T03:39:59;76.05;;;38.33;;
50789;SDS011;37287;47.554;7.844;2022-12-18T03:42:28;72.07;;;38.75;;
50789;SDS011;37287;47.554;7.844;2022-12-18T03:45:08;73.65;;;39.35;;
50789;SDS011;37287;47.554;7.844;2022-12-18T03:56:00;75.93;;;38.67;;
50789;SDS011;37287;47.554;7.844;2022-12-18T03:58:29;75.82;;;39.10;;
50789;SDS011;37287;47.554;7.844;2022-12-18T04:01:01;78.88;;;40.53;;
50789;SDS011;37287;47.554;7.844;2022-12-18T04:03:31;70.22;;;37.60;;
50789;SDS011;37287;47.554;7.844;2022-12-18T04:06:05;81.65;;;40.65;;
50789;SDS011;37287;47.554;7.844;2022-12-18T04:08:32;78.45;;;38.85;;
50789;SDS011;37287;47.554;7.844;2022-12-18T04:11:01;74.88;;;38.35;;
50789;SDS011;37287;47.554;7.844;2022-12-18T04:13:37;76.70;;;39.15;;
50789;SDS011;37287;47.554;7.844;2022-12-18T04:16:05;77.47;;;39.35;;
50789;SDS011;37287;47.554;7.844;2022-12-18T04:18:39;71.80;;;37.83;;
50789;SDS011;37287;47.554;7.844;2022-12-18T04:21:05;75.53;;;39.58;;
50789;SDS011;37287;47.554;7.844;2022-12-18T04:23:32;73.18;;;38.58;;
50789;SDS011;37287;47.554;7.844;2022-12-18T04:25:58;70.88;;;38.58;;
50789;SDS011;37287;47.554;7.844;2022-12-18T04:28:25;76.47;;;38.75;;
50789;SDS011;37287;47.554;7.844;2022-12-18T04:30:51;81.47;;;38.70;;
50789;SDS011;37287;47.554;7.844;2022-12-18T04:33:20;72.40;;;37.38;;
50789;SDS011;37287;47.554;7.844;2022-12-18T04:35:47;71.50;;;36.85;;
50789;SDS011;37287;47.554;7.844;2022-12-18T04:38:13;78.85;;;39.15;;
50789;SDS011;37287;47.554;7.844;2022-12-18T04:40:40;74.65;;;39.72;;
50789;SDS011;37287;47.554;7.844;2022-12-18T04:43:07;71.25;;;37.13;;
50789;SDS011;37287;47.554;7.844;2022-12-18T04:45:34;72.07;;;38.22;;
50789;SDS011;37287;47.554;7.844;2022-12-18T04:48:01;73.63;;;37.83;;
50789;SDS011;37287;47.554;7.844;2022-12-18T04:50:29;70.43;;;36.13;;
50789;SDS011;37287;47.554;7.844;2022-12-18T04:52:56;74.65;;;37.75;;
50789;SDS011;37287;47.554;7.844;2022-12-18T04:55:23;77.75;;;37.88;;
50789;SDS011;37287;47.554;7.844;2022-12-18T04:57:51;71.63;;;37.58;;
50789;SDS011;37287;47.554;7.844;2022-12-18T05:00:18;71.72;;;36.67;;
50789;SDS011;37287;47.554;7.844;2022-12-18T05:03:00;67.78;;;36.90;;
50789;SDS011;37287;47.554;7.844;2022-12-18T05:05:27;72.47;;;35.63;;
50789;SDS011;37287;47.554;7.844;2022-12-18T05:07:56;73.45;;;37.90;;
50789;SDS011;37287;47.554;7.844;2022-12-18T05:10:23;72.82;;;37.42;;
50789;SDS011;37287;47.554;7.844;2022-12-18T05:12:50;76.82;;;38.28;;
50789;SDS011;37287;47.554;7.844;2022-12-18T05:15:30;82.78;;;37.88;;
50789;SDS011;37287;47.554;7.844;2022-12-18T05:17:57;71.47;;;36.17;;
50789;SDS011;37287;47.554;7.844;2022-12-18T05:20:27;72.35;;;37.08;;
50789;SDS011;37287;47.554;7.844;2022-12-18T05:22:59;77.22;;;37.67;;
50789;SDS011;37287;47.554;7.844;2022-12-18T05:25:26;75.03;;;37.65;;
50789;SDS011;37287;47.554;7.844;2022-12-18T05:27:52;72.22;;;36.22;;
50789;SDS011;37287;47.554;7.844;2022-12-18T05:30:21;71.65;;;36.55;;
50789;SDS011;37287;47.554;7.844;2022-12-18T05:32:48;74.72;;;39.35;;
50789;SDS011;37287;47.554;7.844;2022-12-18T05:35:15;75.40;;;37.80;;
50789;SDS011;37287;47.554;7.844;2022-12-18T05:37:48;74.82;;;36.53;;
50789;SDS011;37287;47.554;7.844;2022-12-18T05:40:14;77.25;;;37.08;;
50789;SDS011;37287;47.554;7.844;2022-12-18T05:42:41;66.80;;;34.67;;
50789;SDS011;37287;47.554;7.844;2022-12-18T05:45:14;75.80;;;36.75;;
50789;SDS011;37287;47.554;7.844;2022-12-18T05:47:40;77.50;;;35.78;;
50789;SDS011;37287;47.554;7.844;2022-12-18T05:50:07;71.82;;;35.15;;
50789;SDS011;37287;47.554;7.844;2022-12-18T05:52:34;71.40;;;34.67;;
50789;SDS011;37287;47.554;7.844;2022-12-18T05:55:02;78.80;;;36.55;;
50789;SDS011;37287;47.554;7.844;2022-12-18T05:57:30;73.03;;;36.92;;
50789;SDS011;37287;47.554;7.844;2022-12-18T05:59:58;71.00;;;36.60;;
50789;SDS011;37287;47.554;7.844;2022-12-18T06:02:25;71.35;;;35.83;;
50789;SDS011;37287;47.554;7.844;2022-12-18T06:04:52;77.28;;;36.72;;
50789;SDS011;37287;47.554;7.844;2022-12-18T06:07:20;71.05;;;36.05;;
50789;SDS011;37287;47.554;7.844;2022-12-18T06:09:46;78.18;;;37.13;;
50789;SDS011;37287;47.554;7.844;2022-12-18T06:12:13;78.13;;;35.75;;
50789;SDS011;37287;47.554;7.844;2022-12-18T06:14:41;72.63;;;36.47;;
50789;SDS011;37287;47.554;7.844;2022-12-18T06:17:08;68.25;;;34.40;;
50789;SDS011;37287;47.554;7.844;2022-12-18T06:19:34;75.40;;;37.55;;
50789;SDS011;37287;47.554;7.844;2022-12-18T06:22:03;77.47;;;37.42;;
50789;SDS011;37287;47.554;7.844;2022-12-18T06:24:29;76.65;;;36.13;;
50789;SDS011;37287;47.554;7.844;2022-12-18T06:26:56;76.72;;;36.97;;
50789;SDS011;37287;47.554;7.844;2022-12-18T06:29:29;76.20;;;35.75;;
50789;SDS011;37287;47.554;7.844;2022-12-18T06:31:55;75.03;;;35.95;;
50789;SDS011;37287;47.554;7.844;2022-12-18T06:34:22;69.35;;;35.13;;
50789;SDS011;37287;47.554;7.844;2022-12-18T06:36:49;72.07;;;36.22;;
50789;SDS011;37287;47.554;7.844;2022-12-18T06:39:15;71.35;;;36.08;;
50789;SDS011;37287;47.554;7.844;2022-12-18T06:41:45;83.97;;;37.00;;
50789;SDS011;37287;47.554;7.844;2022-12-18T06:44:12;73.55;;;34.95;;
50789;SDS011;37287;47.554;7.844;2022-12-18T06:46:38;68.43;;;34.42;;
50789;SDS011;37287;47.554;7.844;2022-12-18T06:49:06;73.53;;;35.60;;
50789;SDS011;37287;47.554;7.844;2022-12-18T06:51:37;69.95;;;34.05;;
50789;SDS011;37287;47.554;7.844;2022-12-18T06:54:07;75.50;;;35.50;;
50789;SDS011;37287;47.554;7.844;2022-12-18T06:56:34;72.13;;;33.55;;
50789;SDS011;37287;47.554;7.844;2022-12-18T06:59:02;70.40;;;33.65;;
50789;SDS011;37287;47.554;7.844;2022-12-18T07:01:29;77.60;;;36.28;;
50789;SDS011;37287;47.554;7.844;2022-12-18T07:03:56;74.07;;;35.00;;
50789;SDS011;37287;47.554;7.844;2022-12-18T07:06:25;72.97;;;35.58;;
50789;SDS011;37287;47.554;7.844;2022-12-18T07:08:53;80.03;;;35.83;;
50789;SDS011;37287;47.554;7.844;2022-12-18T07:11:21;71.65;;;34.03;;
50789;SDS011;37287;47.554;7.844;2022-12-18T07:13:48;77.82;;;35.63;;
50789;SDS011;37287;47.554;7.844;2022-12-18T07:16:15;77.43;;;36.25;;
50789;SDS011;37287;47.554;7.844;2022-12-18T07:18:50;70.72;;;33.47;;
50789;SDS011;37287;47.554;7.844;2022-12-18T07:21:19;80.40;;;36.03;;
50789;SDS011;37287;47.554;7.844;2022-12-18T07:23:50;69.40;;;34.67;;
50789;SDS011;37287;47.554;7.844;2022-12-18T07:26:18;76.10;;;36.30;;
50789;SDS011;37287;47.554;7.844;2022-12-18T07:28:49;74.65;;;33.75;;
50789;SDS011;37287;47.554;7.844;2022-12-18T07:31:18;72.63;;;34.00;;
50789;SDS011;37287;47.554;7.844;2022-12-18T07:33:47;77.90;;;37.00;;
50789;SDS011;37287;47.554;7.844;2022-12-18T07:36:14;74.15;;;34.80;;
50789;SDS011;37287;47.554;7.844;2022-12-18T07:38:41;74.15;;;34.55;;
50789;SDS011;37287;47.554;7.844;2022-12-18T07:41:09;75.05;;;34.58;;
50789;SDS011;37287;47.554;7.844;2022-12-18T07:43:37;68.95;;;34.20;;
50789;SDS011;37287;47.554;7.844;2022-12-18T07:46:07;73.13;;;35.17;;
50789;SDS011;37287;47.554;7.844;2022-12-18T07:48:35;67.05;;;32.78;;
50789;SDS011;37287;47.554;7.844;2022-12-18T07:51:15;69.13;;;32.92;;
50789;SDS011;37287;47.554;7.844;2022-12-18T07:53:43;66.72;;;33.63;;
50789;SDS011;37287;47.554;7.844;2022-12-18T07:56:11;71.32;;;36.47;;
50789;SDS011;37287;47.554;7.844;2022-12-18T07:58:53;70.65;;;34.22;;
50789;SDS011;37287;47.554;7.844;2022-12-18T08:01:20;71.25;;;34.50;;
50789;SDS011;37287;47.554;7.844;2022-12-18T08:03:47;70.50;;;34.33;;
50789;SDS011;37287;47.554;7.844;2022-12-18T08:06:15;68.57;;;32.50;;
50789;SDS011;37287;47.554;7.844;2022-12-18T08:08:42;66.65;;;33.65;;
50789;SDS011;37287;47.554;7.844;2022-12-18T08:11:09;72.25;;;33.35;;
50789;SDS011;37287;47.554;7.844;2022-12-18T08:13:36;69.38;;;34.60;;
50789;SDS011;37287;47.554;7.844;2022-12-18T08:16:04;71.60;;;32.70;;
50789;SDS011;37287;47.554;7.844;2022-12-18T08:18:33;70.22;;;32.30;;
50789;SDS011;37287;47.554;7.844;2022-12-18T08:21:11;68.97;;;33.55;;
50789;SDS011;37287;47.554;7.844;2022-12-18T08:23:39;68.93;;;33.95;;
50789;SDS011;37287;47.554;7.844;2022-12-18T08:26:11;69.07;;;34.28;;
50789;SDS011;37287;47.554;7.844;2022-12-18T08:28:39;59.40;;;30.75;;
50789;SDS011;37287;47.554;7.844;2022-12-18T08:31:06;64.43;;;32.00;;
50789;SDS011;37287;47.554;7.844;2022-12-18T08:33:37;71.60;;;34.25;;
50789;SDS011;37287;47.554;7.844;2022-12-18T08:36:05;68.70;;;34.60;;
50789;SDS011;37287;47.554;7.844;2022-12-18T08:38:33;68.53;;;33.83;;
50789;SDS011;37287;47.554;7.844;2022-12-18T08:43:28;66.07;;;30.73;;
50789;SDS011;37287;47.554;7.844;2022-12-18T08:46:19;67.65;;;33.45;;
50789;SDS011;37287;47.554;7.844;2022-12-18T08:48:47;66.25;;;33.67;;
50789;SDS011;37287;47.554;7.844;2022-12-18T08:51:16;61.45;;;32.67;;
50789;SDS011;37287;47.554;7.844;2022-12-18T08:53:45;70.07;;;33.25;;
50789;SDS011;37287;47.554;7.844;2022-12-18T08:56:12;68.07;;;34.55;;
50789;SDS011;37287;47.554;7.844;2022-12-18T08:58:40;64.38;;;32.67;;
50789;SDS011;37287;47.554;7.844;2022-12-18T09:01:09;69.32;;;33.60;;
50789;SDS011;37287;47.554;7.844;2022-12-18T09:03:38;61.35;;;31.85;;
50789;SDS011;37287;47.554;7.844;2022-12-18T09:06:05;61.20;;;31.90;;
50789;SDS011;37287;47.554;7.844;2022-12-18T09:08:33;72.35;;;33.13;;
50789;SDS011;37287;47.554;7.844;2022-12-18T09:10:59;60.55;;;31.50;;
50789;SDS011;37287;47.554;7.844;2022-12-18T09:13:26;62.30;;;32.05;;
50789;SDS011;37287;47.554;7.844;2022-12-18T09:15:58;66.30;;;32.55;;
50789;SDS011;37287;47.554;7.844;2022-12-18T09:18:25;60.25;;;32.05;;
50789;SDS011;37287;47.554;7.844;2022-12-18T09:20:51;63.70;;;31.20;;
50789;SDS011;37287;47.554;7.844;2022-12-18T09:23:19;62.53;;;32.75;;
50789;SDS011;37287;47.554;7.844;2022-12-18T09:25:52;56.65;;;30.67;;
50789;SDS011;37287;47.554;7.844;2022-12-18T09:28:27;63.75;;;31.67;;
50789;SDS011;37287;47.554;7.844;2022-12-18T09:30:53;69.28;;;32.03;;
50789;SDS011;37287;47.554;7.844;2022-12-18T09:33:20;61.75;;;30.95;;
50789;SDS011;37287;47.554;7.844;2022-12-18T09:35:49;57.95;;;31.98;;
50789;SDS011;37287;47.554;7.844;2022-12-18T09:38:19;58.08;;;30.85;;
50789;SDS011;37287;47.554;7.844;2022-12-18T09:40:48;56.80;;;30.88;;
50789;SDS011;37287;47.554;7.844;2022-12-18T09:43:28;58.33;;;29.98;;
50789;SDS011;37287;47.554;7.844;2022-12-18T09:46:00;55.55;;;28.13;;
50789;SDS011;37287;47.554;7.844;2022-12-18T09:48:32;56.40;;;29.45;;
50789;SDS011;37287;47.554;7.844;2022-12-18T09:51:06;50.42;;;29.33;;
50789;SDS011;37287;47.554;7.844;2022-12-18T09:53:41;48.30;;;28.08;;
50789;SDS011;37287;47.554;7.844;2022-12-18T09:56:16;53.08;;;29.58;;
50789;SDS011;37287;47.554;7.844;2022-12-18T09:58:58;52.92;;;29.40;;
50789;SDS011;37287;47.554;7.844;2022-12-18T10:01:26;52.15;;;29.00;;
50789;SDS011;37287;47.554;7.844;2022-12-18T10:04:08;51.20;;;27.05;;
50789;SDS011;37287;47.554;7.844;2022-12-18T10:06:38;49.55;;;27.75;;
50789;SDS011;37287;47.554;7.844;2022-12-18T10:09:22;46.47;;;26.70;;
50789;SDS011;37287;47.554;7.844;2022-12-18T10:20:35;46.70;;;27.08;;
50789;SDS011;37287;47.554;7.844;2022-12-18T10:23:22;46.00;;;27.75;;
50789;SDS011;37287;47.554;7.844;2022-12-18T10:26:13;50.35;;;27.67;;
50789;SDS011;37287;47.554;7.844;2022-12-18T10:28:40;51.85;;;29.02;;
50789;SDS011;37287;47.554;7.844;2022-12-18T10:31:26;50.42;;;28.23;;
50789;SDS011;37287;47.554;7.844;2022-12-18T10:33:55;51.63;;;28.08;;
50789;SDS011;37287;47.554;7.844;2022-12-18T10:36:24;53.00;;;27.08;;
50789;SDS011;37287;47.554;7.844;2022-12-18T10:38:51;45.10;;;26.60;;
50789;SDS011;37287;47.554;7.844;2022-12-18T10:41:26;49.25;;;28.33;;
50789;SDS011;37287;47.554;7.844;2022-12-18T10:44:11;49.92;;;27.45;;
50789;SDS011;37287;47.554;7.844;2022-12-18T10:46:53;49.05;;;27.40;;
50789;SDS011;37287;47.554;7.844;2022-12-18T10:49:33;50.38;;;27.10;;
50789;SDS011;37287;47.554;7.844;2022-12-18T10:52:14;45.85;;;27.58;;
50789;SDS011;37287;47.554;7.844;2022-12-18T10:54:47;50.80;;;27.25;;
50789;SDS011;37287;47.554;7.844;2022-12-18T10:57:35;44.65;;;26.27;;
50789;SDS011;37287;47.554;7.844;2022-12-18T11:02:53;46.53;;;27.42;;
50789;SDS011;37287;47.554;7.844;2022-12-18T11:05:23;46.13;;;27.33;;
50789;SDS011;37287;47.554;7.844;2022-12-18T11:07:53;47.10;;;26.75;;
50789;SDS011;37287;47.554;7.844;2022-12-18T11:10:26;45.63;;;27.17;;
50789;SDS011;37287;47.554;7.844;2022-12-18T11:13:07;47.38;;;26.52;;
50789;SDS011;37287;47.554;7.844;2022-12-18T11:15:45;50.13;;;27.17;;
50789;SDS011;37287;47.554;7.844;2022-12-18T11:18:26;43.95;;;26.67;;
50789;SDS011;37287;47.554;7.844;2022-12-18T11:21:05;47.97;;;27.70;;
50789;SDS011;37287;47.554;7.844;2022-12-18T11:23:34;48.92;;;27.13;;
50789;SDS011;37287;47.554;7.844;2022-12-18T11:26:12;46.15;;;25.98;;
50789;SDS011;37287;47.554;7.844;2022-12-18T11:28:46;50.45;;;27.15;;
50789;SDS011;37287;47.554;7.844;2022-12-18T11:31:25;43.80;;;26.08;;
50789;SDS011;37287;47.554;7.844;2022-12-18T11:34:10;50.65;;;27.85;;
50789;SDS011;37287;47.554;7.844;2022-12-18T11:36:59;49.72;;;27.30;;
50789;SDS011;37287;47.554;7.844;2022-12-18T11:42:04;46.20;;;26.58;;
50789;SDS011;37287;47.554;7.844;2022-12-18T11:44:41;45.08;;;26.58;;
50789;SDS011;37287;47.554;7.844;2022-12-18T11:49:59;48.92;;;26.02;;
50789;SDS011;37287;47.554;7.844;2022-12-18T11:52:35;51.40;;;26.55;;
50789;SDS011;37287;47.554;7.844;2022-12-18T11:55:09;48.13;;;27.10;;
50789;SDS011;37287;47.554;7.844;2022-12-18T11:57:48;45.67;;;26.70;;
50789;SDS011;37287;47.554;7.844;2022-12-18T12:00:25;45.40;;;26.13;;
50789;SDS011;37287;47.554;7.844;2022-12-18T12:27:11;44.92;;;25.45;;
50789;SDS011;37287;47.554;7.844;2022-12-18T12:30:03;46.03;;;26.05;;
50789;SDS011;37287;47.554;7.844;2022-12-18T12:32:49;47.25;;;26.17;;
50789;SDS011;37287;47.554;7.844;2022-12-18T12:35:32;46.60;;;28.02;;
50789;SDS011;37287;47.554;7.844;2022-12-18T12:38:12;46.75;;;26.73;;
50789;SDS011;37287;47.554;7.844;2022-12-18T12:40:48;49.05;;;26.98;;
50789;SDS011;37287;47.554;7.844;2022-12-18T12:43:37;45.65;;;26.10;;
50789;SDS011;37287;47.554;7.844;2022-12-18T12:46:17;44.70;;;25.92;;
50789;SDS011;37287;47.554;7.844;2022-12-18T12:54:03;45.05;;;26.98;;
50789;SDS011;37287;47.554;7.844;2022-12-18T12:56:43;46.28;;;25.33;;
50789;SDS011;37287;47.554;7.844;2022-12-18T12:59:18;50.78;;;27.23;;
50789;SDS011;37287;47.554;7.844;2022-12-18T13:01:52;49.53;;;26.27;;
50789;SDS011;37287;47.554;7.844;2022-12-18T13:07:27;47.88;;;25.10;;
50789;SDS011;37287;47.554;7.844;2022-12-18T13:10:12;45.22;;;25.60;;
50789;SDS011;37287;47.554;7.844;2022-12-18T13:21:03;45.38;;;25.33;;
50789;SDS011;37287;47.554;7.844;2022-12-18T13:23:38;52.53;;;25.88;;
50789;SDS011;37287;47.554;7.844;2022-12-18T13:31:14;44.78;;;25.25;;
50789;SDS011;37287;47.554;7.844;2022-12-18T13:36:57;52.50;;;27.77;;
50789;SDS011;37287;47.554;7.844;2022-12-18T13:39:58;46.80;;;25.35;;
50789;SDS011;37287;47.554;7.844;2022-12-18T13:42:31;43.28;;;24.55;;
50789;SDS011;37287;47.554;7.844;2022-12-18T13:48:16;46.00;;;26.05;;
50789;SDS011;37287;47.554;7.844;2022-12-18T13:50:49;48.40;;;25.55;;
50789;SDS011;37287;47.554;7.844;2022-12-18T13:53:23;46.05;;;24.77;;
50789;SDS011;37287;47.554;7.844;2022-12-18T13:55:54;47.53;;;24.60;;
50789;SDS011;37287;47.554;7.844;2022-12-18T13:58:21;51.47;;;26.33;;
50789;SDS011;37287;47.554;7.844;2022-12-18T14:00:48;44.67;;;26.02;;
50789;SDS011;37287;47.554;7.844;2022-12-18T14:03:21;45.08;;;23.83;;
50789;SDS011;37287;47.554;7.844;2022-12-18T14:05:53;49.87;;;26.17;;
50789;SDS011;37287;47.554;7.844;2022-12-18T14:08:33;48.92;;;25.20;;
50789;SDS011;37287;47.554;7.844;2022-12-18T14:11:18;45.33;;;25.70;;
50789;SDS011;37287;47.554;7.844;2022-12-18T14:13:48;52.65;;;24.38;;
50789;SDS011;37287;47.554;7.844;2022-12-18T14:16:16;47.85;;;25.25;;
50789;SDS011;37287;47.554;7.844;2022-12-18T14:18:54;49.92;;;27.02;;
50789;SDS011;37287;47.554;7.844;2022-12-18T14:21:36;46.10;;;23.65;;
50789;SDS011;37287;47.554;7.844;2022-12-18T14:26:45;45.35;;;24.73;;
50789;SDS011;37287;47.554;7.844;2022-12-18T14:29:20;43.08;;;24.92;;
50789;SDS011;37287;47.554;7.844;2022-12-18T14:34:46;47.90;;;24.23;;
50789;SDS011;37287;47.554;7.844;2022-12-18T14:37:25;43.92;;;25.02;;
50789;SDS011;37287;47.554;7.844;2022-12-18T14:39:53;46.15;;;25.48;;
50789;SDS011;37287;47.554;7.844;2022-12-18T14:42:36;49.33;;;26.42;;
50789;SDS011;37287;47.554;7.844;2022-12-18T14:48:08;49.47;;;25.00;;
50789;SDS011;37287;47.554;7.844;2022-12-18T14:50:38;45.63;;;24.40;;
50789;SDS011;37287;47.554;7.844;2022-12-18T14:53:04;44.45;;;24.77;;
50789;SDS011;37287;47.554;7.844;2022-12-18T14:55:32;46.10;;;24.38;;
50789;SDS011;37287;47.554;7.844;2022-12-18T14:57:59;43.90;;;24.55;;
50789;SDS011;37287;47.554;7.844;2022-12-18T15:00:26;45.92;;;24.10;;
50789;SDS011;37287;47.554;7.844;2022-12-18T15:02:54;46.13;;;25.00;;
50789;SDS011;37287;47.554;7.844;2022-12-18T15:05:26;44.05;;;24.95;;
50789;SDS011;37287;47.554;7.844;2022-12-18T15:10:32;43.40;;;23.05;;
50789;SDS011;37287;47.554;7.844;2022-12-18T15:18:15;42.05;;;22.45;;
50789;SDS011;37287;47.554;7.844;2022-12-18T15:20:45;43.70;;;22.30;;
50789;SDS011;37287;47.554;7.844;2022-12-18T15:25:45;42.40;;;22.75;;
50789;SDS011;37287;47.554;7.844;2022-12-18T15:28:26;45.22;;;22.20;;
50789;SDS011;37287;47.554;7.844;2022-12-18T15:31:00;44.00;;;22.45;;
50789;SDS011;37287;47.554;7.844;2022-12-18T15:33:30;43.38;;;23.10;;
50789;SDS011;37287;47.554;7.844;2022-12-18T15:36:03;46.78;;;25.13;;
50789;SDS011;37287;47.554;7.844;2022-12-18T15:38:35;42.92;;;24.08;;
50789;SDS011;37287;47.554;7.844;2022-12-18T15:41:02;50.05;;;24.02;;
50789;SDS011;37287;47.554;7.844;2022-12-18T15:43:29;41.88;;;23.08;;
50789;SDS011;37287;47.554;7.844;2022-12-18T15:48:40;43.60;;;23.13;;
50789;SDS011;37287;47.554;7.844;2022-12-18T15:51:17;50.83;;;24.25;;
50789;SDS011;37287;47.554;7.844;2022-12-18T15:53:46;43.97;;;24.05;;
50789;SDS011;37287;47.554;7.844;2022-12-18T15:56:20;43.22;;;23.83;;
50789;SDS011;37287;47.554;7.844;2022-12-18T15:59:13;43.20;;;22.90;;
50789;SDS011;37287;47.554;7.844;2022-12-18T16:01:51;46.75;;;24.05;;
50789;SDS011;37287;47.554;7.844;2022-12-18T16:04:21;47.75;;;23.75;;
50789;SDS011;37287;47.554;7.844;2022-12-18T16:06:49;47.60;;;25.05;;
50789;SDS011;37287;47.554;7.844;2022-12-18T16:09:39;44.55;;;24.33;;
50789;SDS011;37287;47.554;7.844;2022-12-18T16:12:06;39.72;;;23.13;;
50789;SDS011;37287;47.554;7.844;2022-12-18T16:14:40;45.30;;;24.95;;
50789;SDS011;37287;47.554;7.844;2022-12-18T16:17:08;49.65;;;25.25;;
50789;SDS011;37287;47.554;7.844;2022-12-18T16:19:37;47.67;;;24.85;;
50789;SDS011;37287;47.554;7.844;2022-12-18T16:22:04;46.42;;;24.10;;
50789;SDS011;37287;47.554;7.844;2022-12-18T16:24:32;51.70;;;25.92;;
50789;SDS011;37287;47.554;7.844;2022-12-18T16:27:00;47.42;;;24.90;;
50789;SDS011;37287;47.554;7.844;2022-12-18T16:29:28;50.05;;;26.08;;
50789;SDS011;37287;47.554;7.844;2022-12-18T16:31:58;49.05;;;25.05;;
50789;SDS011;37287;47.554;7.844;2022-12-18T16:34:30;48.85;;;25.48;;
50789;SDS011;37287;47.554;7.844;2022-12-18T16:37:05;44.17;;;24.20;;
50789;SDS011;37287;47.554;7.844;2022-12-18T16:39:33;49.80;;;26.83;;
50789;SDS011;37287;47.554;7.844;2022-12-18T16:42:01;47.30;;;24.17;;
50789;SDS011;37287;47.554;7.844;2022-12-18T16:44:47;52.83;;;25.58;;
50789;SDS011;37287;47.554;7.844;2022-12-18T16:47:14;52.50;;;26.55;;
50789;SDS011;37287;47.554;7.844;2022-12-18T16:49:42;54.85;;;26.38;;
50789;SDS011;37287;47.554;7.844;2022-12-18T16:52:14;50.08;;;26.13;;